createdAt,value
2018-05-25T00:09:56.541Z,101461.66
2018-05-25T00:12:25.002Z,101462.08
2018-05-25T00:14:53.397Z,101455.22
2018-05-25T00:17:21.751Z,101458.50
2018-05-25T00:19:50.129Z,101462.77
2018-05-25T00:22:18.646Z,101460.73
2018-05-25T00:24:47.099Z,101461.13
2018-05-25T00:27:15.472Z,101457.09
2018-05-25T00:29:43.887Z,101467.06
2018-05-25T00:32:12.255Z,101468.41
2018-05-25T00:34:41.038Z,101461.70
2018-05-25T00:37:09.431Z,101462.27
2018-05-25T00:39:37.909Z,101455.13
2018-05-25T00:42:06.291Z,101461.17
2018-05-25T00:44:34.671Z,101462.45
2018-05-25T00:47:03.042Z,101475.85
2018-05-25T00:49:31.415Z,101466.41
2018-05-25T00:51:59.780Z,101454.25
2018-05-25T00:54:28.737Z,101459.09
2018-05-25T00:56:57.103Z,101463.05
2018-05-25T00:59:25.868Z,101451.28
2018-05-25T01:01:54.832Z,101455.59
2018-05-25T01:04:23.288Z,101473.74
2018-05-25T01:06:51.649Z,101469.54
2018-05-25T01:09:20.025Z,101460.61
2018-05-25T01:11:48.404Z,101459.08
2018-05-25T01:14:16.778Z,101462.03
2018-05-25T01:16:45.181Z,101478.33
2018-05-25T01:19:13.741Z,101467.20
2018-05-25T01:21:42.499Z,101464.08
2018-05-25T01:24:10.877Z,101463.31
2018-05-25T01:26:39.336Z,101466.67
2018-05-25T01:29:07.702Z,101466.97
2018-05-25T01:31:36.104Z,101462.44
2018-05-25T01:34:04.572Z,101461.64
2018-05-25T01:36:32.975Z,101451.23
2018-05-25T01:39:01.358Z,101461.77
2018-05-25T01:41:29.834Z,101461.41
2018-05-25T01:43:58.194Z,101461.88
2018-05-25T01:46:26.616Z,101460.99
2018-05-25T01:48:54.982Z,101463.89
2018-05-25T01:51:23.394Z,101465.45
2018-05-25T01:53:51.763Z,101470.52
2018-05-25T01:56:20.136Z,101462.73
2018-05-25T01:58:48.905Z,101459.92
2018-05-25T02:01:17.328Z,101456.12
2018-05-25T02:03:45.698Z,101464.61
2018-05-25T02:06:14.235Z,101465.55
2018-05-25T02:08:42.720Z,101469.73
2018-05-25T02:11:11.114Z,101461.41
2018-05-25T02:13:39.485Z,101464.77
2018-05-25T02:16:07.877Z,101455.25
2018-05-25T02:18:36.658Z,101466.27
2018-05-25T02:21:05.407Z,101466.15
2018-05-25T02:23:33.908Z,101473.50
2018-05-25T02:26:02.268Z,101466.77
2018-05-25T02:28:30.723Z,101454.41
2018-05-25T02:30:59.118Z,101452.83
2018-05-25T02:33:27.497Z,101449.91
2018-05-25T02:35:55.864Z,101454.13
2018-05-25T02:38:24.231Z,101452.70
2018-05-25T02:40:52.581Z,101454.58
2018-05-25T02:43:21.379Z,101447.63
2018-05-25T02:45:50.136Z,101453.87
2018-05-25T02:48:18.627Z,101455.35
2018-05-25T02:50:46.982Z,101456.05
2018-05-25T02:53:15.388Z,101451.18
2018-05-25T02:55:43.767Z,101443.74
2018-05-25T02:58:12.153Z,101452.11
2018-05-25T03:00:40.924Z,101449.17
2018-05-25T03:03:09.416Z,101440.73
2018-05-25T03:05:37.866Z,101439.38
2018-05-25T03:08:06.266Z,101435.92
2018-05-25T03:10:34.645Z,101460.06
2018-05-25T03:13:03.047Z,101444.52
2018-05-25T03:15:32.274Z,101434.29
2018-05-25T03:18:00.669Z,101439.88
2018-05-25T03:20:29.071Z,101447.22
2018-05-25T03:22:58.247Z,101442.81
2018-05-25T03:25:26.610Z,101442.89
2018-05-25T03:27:54.991Z,101455.98
2018-05-25T03:30:23.370Z,101432.59
2018-05-25T03:32:51.751Z,101435.16
2018-05-25T03:35:20.171Z,101447.50
2018-05-25T03:37:48.697Z,101435.42
2018-05-25T03:40:17.062Z,101439.23
2018-05-25T03:42:45.829Z,101439.41
2018-05-25T03:45:14.178Z,101450.27
2018-05-25T03:47:42.555Z,101443.53
2018-05-25T03:50:11.155Z,101447.63
2018-05-25T03:52:45.563Z,101444.59
2018-05-25T03:55:13.951Z,101461.23
2018-05-25T03:57:42.445Z,101445.12
2018-05-25T04:00:28.570Z,101442.38
2018-05-25T04:02:57.354Z,101451.80
2018-05-25T04:05:26.121Z,101454.30
2018-05-25T04:07:56.140Z,101453.20
2018-05-25T04:10:24.526Z,101454.63
2018-05-25T04:12:52.911Z,101444.27
2018-05-25T04:15:21.672Z,101447.66
2018-05-25T04:17:50.052Z,101458.47
2018-05-25T04:20:18.480Z,101449.28
2018-05-25T04:22:46.871Z,101446.33
2018-05-25T04:25:15.296Z,101443.48
2018-05-25T04:27:43.746Z,101444.84
2018-05-25T04:30:12.174Z,101445.42
2018-05-25T04:32:40.936Z,101441.09
2018-05-25T04:35:09.345Z,101446.56
2018-05-25T04:37:37.688Z,101449.57
2018-05-25T04:40:06.123Z,101447.30
2018-05-25T04:42:34.509Z,101455.05
2018-05-25T04:45:02.869Z,101446.87
2018-05-25T04:47:31.632Z,101447.66
2018-05-25T04:49:59.986Z,101442.70
2018-05-25T04:52:28.450Z,101438.97
2018-05-25T04:54:57.218Z,101448.13
2018-05-25T04:57:25.596Z,101437.39
2018-05-25T04:59:53.958Z,101442.89
2018-05-25T05:02:22.772Z,101447.30
2018-05-25T05:04:51.143Z,101438.70
2018-05-25T05:07:19.910Z,101433.98
2018-05-25T05:09:48.714Z,101444.41
2018-05-25T05:12:17.465Z,101444.20
2018-05-25T05:14:45.883Z,101437.81
2018-05-25T05:17:14.623Z,101440.06
2018-05-25T05:19:42.995Z,101447.31
2018-05-25T05:22:11.369Z,101441.31
2018-05-25T05:24:39.730Z,101441.89
2018-05-25T05:27:08.113Z,101450.58
2018-05-25T05:29:36.499Z,101439.35
2018-05-25T05:32:04.909Z,101439.75
2018-05-25T05:34:33.294Z,101440.10
2018-05-25T05:37:01.757Z,101449.52
2018-05-25T05:39:30.117Z,101447.30
2018-05-25T05:41:58.542Z,101444.64
2018-05-25T05:44:26.991Z,101442.18
2018-05-25T05:46:55.439Z,101446.79
2018-05-25T05:49:23.801Z,101446.87
2018-05-25T05:51:52.175Z,101444.25
2018-05-25T05:54:20.943Z,101455.05
2018-05-25T05:56:49.343Z,101451.83
2018-05-25T05:59:17.807Z,101458.45
2018-05-25T06:01:46.160Z,101449.94
2018-05-25T06:04:14.540Z,101442.84
2018-05-25T06:06:42.917Z,101444.42
2018-05-25T06:09:11.374Z,101437.83
2018-05-25T06:11:39.766Z,101439.85
2018-05-25T06:14:08.157Z,101446.87
2018-05-25T06:16:36.536Z,101443.75
2018-05-25T06:19:04.942Z,101436.79
2018-05-25T06:21:33.769Z,101431.64
2018-05-25T06:24:02.130Z,101446.45
2018-05-25T06:26:30.892Z,101447.08
2018-05-25T06:28:59.248Z,101440.27
2018-05-25T06:31:27.615Z,101443.87
2018-05-25T06:33:55.974Z,101442.42
2018-05-25T06:36:24.351Z,101439.03
2018-05-25T06:38:52.727Z,101440.55
2018-05-25T06:41:21.130Z,101440.42
2018-05-25T06:43:49.490Z,101445.94
2018-05-25T06:46:17.925Z,101442.89
2018-05-25T06:48:46.748Z,101444.34
2018-05-25T06:51:15.125Z,101437.06
2018-05-25T06:53:43.551Z,101450.14
2018-05-25T06:56:12.138Z,101438.34
2018-05-25T06:58:40.490Z,101436.14
2018-05-25T07:01:08.870Z,101433.36
2018-05-25T07:03:37.232Z,101429.40
2018-05-25T07:06:05.646Z,101436.95
2018-05-25T07:08:34.094Z,101433.13
2018-05-25T07:11:02.521Z,101428.70
2018-05-25T07:13:30.999Z,101432.88
2018-05-25T07:15:59.468Z,101433.43
2018-05-25T07:18:27.887Z,101433.50
2018-05-25T07:20:56.655Z,101432.31
2018-05-25T07:23:25.241Z,101441.81
2018-05-25T07:25:53.618Z,101428.14
2018-05-25T07:28:21.991Z,101422.72
2018-05-25T07:30:50.373Z,101432.77
2018-05-25T07:33:19.003Z,101429.30
2018-05-25T07:35:47.405Z,101429.00
2018-05-25T07:38:15.775Z,101429.44
2018-05-25T07:40:44.164Z,101422.05
2018-05-25T07:43:12.525Z,101427.23
2018-05-25T07:45:49.195Z,101429.13
2018-05-25T07:48:17.579Z,101435.89
2018-05-25T07:50:46.062Z,101435.08
2018-05-25T07:53:14.431Z,101436.69
2018-05-25T07:55:42.864Z,101435.50
2018-05-25T07:58:11.261Z,101433.37
2018-05-25T08:00:40.039Z,101439.67
2018-05-25T08:03:08.499Z,101432.00
2018-05-25T08:05:36.982Z,101433.17
2018-05-25T08:08:05.568Z,101427.23
2018-05-25T08:10:33.963Z,101431.02
2018-05-25T08:13:02.756Z,101434.80
2018-05-25T08:15:31.147Z,101432.44
2018-05-25T08:17:59.530Z,101436.55
2018-05-25T08:20:27.911Z,101429.61
2018-05-25T08:22:56.386Z,101426.42
2018-05-25T08:25:24.774Z,101420.18
2018-05-25T08:27:53.261Z,101434.05
2018-05-25T08:30:22.494Z,101429.87
2018-05-25T08:32:50.929Z,101427.73
2018-05-25T08:35:19.338Z,101429.13
2018-05-25T08:37:47.856Z,101434.00
2018-05-25T08:40:16.716Z,101436.42
2018-05-25T08:42:45.134Z,101432.76
2018-05-25T08:45:13.525Z,101427.61
2018-05-25T08:47:41.913Z,101429.58
2018-05-25T08:50:10.786Z,101423.84
2018-05-25T08:52:39.170Z,101419.86
2018-05-25T08:55:07.659Z,101426.57
2018-05-25T08:57:36.438Z,101429.41
2018-05-25T09:00:04.836Z,101416.61
2018-05-25T09:02:33.610Z,101419.67
2018-05-25T09:05:01.975Z,101423.67
2018-05-25T09:07:30.354Z,101425.99
2018-05-25T09:09:58.733Z,101429.34
2018-05-25T09:12:27.184Z,101424.63
2018-05-25T09:14:55.955Z,101421.52
2018-05-25T09:17:24.403Z,101411.38
2018-05-25T09:19:52.796Z,101426.81
2018-05-25T09:22:21.571Z,101411.15
2018-05-25T09:24:50.013Z,101417.50
2018-05-25T09:27:18.466Z,101414.16
2018-05-25T09:29:46.859Z,101417.40
2018-05-25T09:32:15.266Z,101407.16
2018-05-25T09:34:43.630Z,101404.47
2018-05-25T09:37:11.998Z,101404.66
2018-05-25T09:39:40.389Z,101409.44
2018-05-25T09:42:08.819Z,101396.73
2018-05-25T09:44:37.659Z,101412.00
2018-05-25T09:47:06.024Z,101405.88
2018-05-25T09:49:34.412Z,101380.55
2018-05-25T09:52:02.816Z,101393.09
2018-05-25T09:54:31.195Z,101380.56
2018-05-25T09:57:01.647Z,101386.83
2018-05-25T09:59:30.421Z,101394.84
2018-05-25T10:01:58.836Z,101401.20
2018-05-25T10:04:27.253Z,101384.38
2018-05-25T10:06:55.623Z,101388.72
2018-05-25T10:09:24.002Z,101376.20
2018-05-25T10:11:52.375Z,101386.77
2018-05-25T10:14:20.766Z,101381.11
2018-05-25T10:16:49.139Z,101379.96
2018-05-25T10:19:17.487Z,101387.97
2018-05-25T10:21:45.856Z,101384.70
2018-05-25T10:24:14.221Z,101389.23
2018-05-25T10:26:42.600Z,101381.73
2018-05-25T10:29:11.367Z,101383.78
2018-05-25T10:31:39.848Z,101382.23
2018-05-25T10:34:08.218Z,101379.20
2018-05-25T10:36:36.590Z,101372.61
2018-05-25T10:39:05.569Z,101372.36
2018-05-25T10:41:33.987Z,101370.28
2018-05-25T10:44:02.366Z,101370.90
2018-05-25T10:46:30.743Z,101375.17
2018-05-25T10:48:59.127Z,101373.61
2018-05-25T10:51:27.949Z,101369.78
2018-05-25T10:53:56.323Z,101364.92
2018-05-25T10:56:24.701Z,101363.97
2018-05-25T10:58:53.062Z,101382.43
2018-05-25T11:01:21.919Z,101364.34
2018-05-25T11:03:50.349Z,101377.97
2018-05-25T11:06:18.767Z,101358.92
2018-05-25T11:08:47.159Z,101358.27
2018-05-25T11:11:15.536Z,101349.01
2018-05-25T11:13:43.916Z,101363.06
2018-05-25T11:16:12.308Z,101341.73
2018-05-25T11:18:40.658Z,101351.66
2018-05-25T11:21:09.079Z,101349.30
2018-05-25T11:23:37.977Z,101342.35
2018-05-25T11:26:06.797Z,101351.30
2018-05-25T11:28:35.175Z,101333.95
2018-05-25T11:31:03.590Z,101342.12
2018-05-25T11:33:31.968Z,101321.70
2018-05-25T11:36:00.336Z,101328.93
2018-05-25T11:38:28.698Z,101330.95
2018-05-25T11:40:57.105Z,101318.59
2018-05-25T11:43:25.504Z,101335.23
2018-05-25T11:45:53.914Z,101330.40
2018-05-25T11:48:22.307Z,101321.05
2018-05-25T11:50:50.721Z,101312.27
2018-05-25T11:53:19.090Z,101318.03
2018-05-25T11:55:47.479Z,101323.52
2018-05-25T11:58:15.892Z,101322.48
2018-05-25T12:00:44.663Z,101318.00
2018-05-25T12:03:13.545Z,101308.61
2018-05-25T12:05:41.926Z,101303.30
2018-05-25T12:08:10.301Z,101313.45
2018-05-25T12:10:38.764Z,101317.16
2018-05-25T12:13:07.137Z,101304.55
2018-05-25T12:15:35.515Z,101309.98
2018-05-25T12:18:03.914Z,101302.36
2018-05-25T12:20:32.300Z,101304.88
2018-05-25T12:23:00.690Z,101305.06
2018-05-25T12:25:29.066Z,101302.22
2018-05-25T12:27:57.418Z,101305.45
2018-05-25T12:30:25.796Z,101298.69
2018-05-25T12:32:54.166Z,101293.81
2018-05-25T12:35:22.574Z,101294.17
2018-05-25T12:37:51.114Z,101294.84
2018-05-25T12:40:19.517Z,101294.77
2018-05-25T12:42:48.050Z,101293.23
2018-05-25T12:45:17.097Z,101278.41
2018-05-25T12:47:45.536Z,101279.12
2018-05-25T12:50:13.922Z,101272.22
2018-05-25T12:52:42.308Z,101276.88
2018-05-25T12:55:10.721Z,101287.31
2018-05-25T12:57:39.211Z,101275.84
2018-05-25T13:00:07.650Z,101278.84
2018-05-25T13:02:36.042Z,101275.33
2018-05-25T13:05:05.957Z,101282.41
2018-05-25T13:07:34.346Z,101259.27
2018-05-25T13:10:02.706Z,101257.77
2018-05-25T13:12:31.099Z,101260.37
2018-05-25T13:14:59.464Z,101245.41
2018-05-25T13:17:27.840Z,101253.29
2018-05-25T13:19:56.195Z,101256.55
2018-05-25T13:22:24.989Z,101254.37
2018-05-25T13:27:27.991Z,101247.47
2018-05-25T13:29:56.363Z,101245.88
2018-05-25T13:32:24.807Z,101243.21
2018-05-25T13:34:53.174Z,101254.52
2018-05-25T13:37:21.544Z,101248.53
2018-05-25T13:39:49.914Z,101247.03
2018-05-25T13:44:59.319Z,101248.60
2018-05-25T13:47:28.102Z,101252.75
2018-05-25T13:49:56.469Z,101253.90
2018-05-25T13:52:24.834Z,101262.05
2018-05-25T13:54:53.219Z,101249.94
2018-05-25T13:57:21.590Z,101260.84
2018-05-25T13:59:49.966Z,101247.91
2018-05-25T14:02:18.353Z,101245.75
2018-05-25T14:04:46.780Z,101255.42
2018-05-25T14:07:15.155Z,101242.59
2018-05-25T14:09:43.525Z,101252.22
2018-05-25T14:12:12.290Z,101253.56
2018-05-25T14:14:40.655Z,101255.98
2018-05-25T14:17:09.039Z,101245.94
2018-05-25T14:19:37.421Z,101245.44
2018-05-25T14:57:38.795Z,101223.27
2018-05-25T15:03:04.699Z,101226.23
2018-05-25T15:05:33.103Z,101236.75
2018-05-25T15:08:01.496Z,101223.80
2018-05-25T15:10:29.947Z,101222.73
2018-05-25T15:12:58.333Z,101222.11
2018-05-25T15:15:26.704Z,101225.88
2018-05-25T15:17:55.078Z,101218.33
2018-05-25T15:20:23.490Z,101212.37
2018-05-25T15:22:51.867Z,101208.80
2018-05-25T15:25:20.233Z,101209.23
2018-05-25T15:27:48.663Z,101206.84
2018-05-25T15:30:17.103Z,101207.16
2018-05-25T15:32:45.761Z,101208.59
2018-05-25T15:35:14.599Z,101209.09
2018-05-25T15:37:42.965Z,101203.45
2018-05-25T15:40:11.327Z,101201.12
2018-05-25T15:42:40.389Z,101210.32
2018-05-25T15:45:09.162Z,101206.06
2018-05-25T15:47:37.659Z,101203.31
2018-05-25T15:50:06.010Z,101209.67
2018-05-25T15:52:34.375Z,101204.84
2018-05-25T15:55:02.849Z,101192.55
2018-05-25T15:57:31.215Z,101206.00
2018-05-25T15:59:59.613Z,101210.73
2018-05-25T16:02:27.997Z,101208.48
2018-05-25T16:04:56.438Z,101205.90
2018-05-25T16:07:25.385Z,101206.56
2018-05-25T16:09:53.842Z,101207.41
2018-05-25T16:12:22.214Z,101204.65
2018-05-25T16:14:50.594Z,101200.78
2018-05-25T16:17:19.010Z,101204.53
2018-05-25T16:19:47.783Z,101209.23
2018-05-25T16:22:16.142Z,101201.36
2018-05-25T16:24:44.519Z,101197.91
2018-05-25T16:27:12.869Z,101204.59
2018-05-25T16:29:42.269Z,101202.09
2018-05-25T16:32:10.669Z,101216.53
2018-05-25T16:34:39.037Z,101204.05
2018-05-25T16:37:07.400Z,101196.08
2018-05-25T16:39:35.764Z,101196.02
2018-05-25T16:42:04.532Z,101200.67
2018-05-25T16:44:32.931Z,101207.80
2018-05-25T16:47:01.687Z,101199.25
2018-05-25T16:49:30.054Z,101197.41
2018-05-25T16:51:58.423Z,101201.81
2018-05-25T16:54:26.795Z,101209.62
2018-05-25T16:56:55.156Z,101211.91
2018-05-25T16:59:23.539Z,101203.69
2018-05-25T17:01:51.947Z,101204.70
2018-05-25T17:04:20.332Z,101200.37
2018-05-25T17:06:48.731Z,101203.31
2018-05-25T17:09:17.091Z,101201.16
2018-05-25T17:11:45.457Z,101205.30
2018-05-25T17:14:13.872Z,101208.27
2018-05-25T17:16:42.657Z,101210.78
2018-05-25T17:19:11.038Z,101210.84
2018-05-25T17:21:39.814Z,101213.81
2018-05-25T17:24:08.182Z,101215.36
2018-05-25T17:26:36.549Z,101220.92
2018-05-25T17:29:04.948Z,101215.41
2018-05-25T17:31:33.342Z,101229.98
2018-05-25T17:34:02.169Z,101226.35
2018-05-25T17:36:30.514Z,101223.11
2018-05-25T17:38:59.304Z,101224.20
2018-05-25T17:41:27.657Z,101232.97
2018-05-25T17:43:56.169Z,101237.39
2018-05-25T17:46:24.612Z,101244.61
2018-05-25T17:48:53.035Z,101247.63
2018-05-25T17:51:21.797Z,101254.51
2018-05-25T17:53:50.169Z,101252.37
2018-05-25T17:56:18.535Z,101248.71
2018-05-25T17:58:46.919Z,101252.61
2018-05-25T18:01:15.279Z,101250.59
2018-05-25T18:03:43.713Z,101263.95
2018-05-25T18:06:12.496Z,101261.61
2018-05-25T18:08:41.268Z,101277.46
2018-05-25T18:11:09.615Z,101262.64
2018-05-25T18:13:37.986Z,101276.47
2018-05-25T18:16:06.364Z,101276.80
2018-05-25T18:18:34.742Z,101284.58
2018-05-25T18:21:03.125Z,101283.37
2018-05-25T18:23:31.524Z,101281.23
2018-05-25T18:25:59.890Z,101284.89
2018-05-25T18:28:28.310Z,101289.98
2018-05-25T18:30:57.109Z,101289.85
2018-05-25T18:33:25.515Z,101292.84
2018-05-25T18:35:53.913Z,101279.34
2018-05-25T18:38:22.270Z,101315.17
2018-05-25T18:40:50.655Z,101300.81
2018-05-25T18:43:19.083Z,101295.07
2018-05-25T18:45:47.454Z,101308.48
2018-05-25T18:48:15.804Z,101314.24
2018-05-25T18:50:44.310Z,101316.23
2018-05-25T18:53:12.673Z,101322.55
2018-05-25T18:55:41.039Z,101317.02
2018-05-25T18:58:09.459Z,101322.20
2018-05-25T19:00:37.809Z,101326.68
2018-05-25T19:03:06.215Z,101338.74
2018-05-25T19:05:34.586Z,101341.09
2018-05-25T19:08:02.983Z,101343.39
2018-05-25T19:10:31.409Z,101339.84
2018-05-25T19:12:59.766Z,101347.42
2018-05-25T19:15:28.210Z,101344.84
2018-05-25T19:17:56.579Z,101353.83
2018-05-25T19:20:24.970Z,101362.67
2018-05-25T19:22:53.319Z,101347.78
2018-05-25T19:25:21.676Z,101354.70
2018-05-25T19:27:50.031Z,101357.02
2018-05-25T19:30:18.845Z,101354.96
2018-05-25T19:32:47.206Z,101355.41
2018-05-25T19:35:15.577Z,101347.20
2018-05-25T19:37:44.354Z,101355.51
2018-05-25T19:40:13.117Z,101361.82
2018-05-25T19:42:41.494Z,101366.40
2018-05-25T19:45:09.905Z,101362.27
2018-05-25T19:47:38.278Z,101366.48
2018-05-25T19:50:07.139Z,101368.31
2018-05-25T19:52:35.524Z,101370.41
2018-05-25T19:55:03.917Z,101385.41
2018-05-25T19:57:32.368Z,101367.09
2018-05-25T20:00:00.761Z,101361.02
2018-05-25T20:02:29.138Z,101366.50
2018-05-25T20:04:57.515Z,101368.12
2018-05-25T20:07:25.884Z,101366.31
2018-05-25T20:09:54.274Z,101371.77
2018-05-25T20:12:22.641Z,101367.81
2018-05-25T20:14:51.017Z,101364.84
2018-05-25T20:17:19.429Z,101363.80
2018-05-25T20:19:47.910Z,101362.28
2018-05-25T20:22:16.382Z,101365.53
2018-05-25T20:24:44.763Z,101364.73
2018-05-25T20:27:13.122Z,101364.30
2018-05-25T20:29:41.504Z,101366.53
2018-05-25T20:32:09.890Z,101366.28
2018-05-25T20:34:38.266Z,101367.54
2018-05-25T20:37:06.750Z,101377.02
2018-05-25T20:39:35.122Z,101376.55
2018-05-25T20:42:03.536Z,101383.08
2018-05-25T20:44:32.297Z,101378.84
2018-05-25T20:47:00.680Z,101383.08
2018-05-25T20:49:29.062Z,101374.58
2018-05-25T20:51:57.633Z,101387.80
2018-05-25T20:54:26.006Z,101386.55
2018-05-25T20:56:54.381Z,101391.22
2018-05-25T20:59:22.761Z,101383.22
2018-05-25T21:01:51.137Z,101388.72
2018-05-25T21:04:19.503Z,101389.06
2018-05-25T21:06:47.895Z,101398.23
2018-05-25T21:09:16.357Z,101386.92
2018-05-25T21:11:44.727Z,101397.20
2018-05-25T21:14:13.169Z,101404.77
2018-05-25T21:16:42.045Z,101403.55
2018-05-25T21:19:10.416Z,101406.95
2018-05-25T21:21:38.813Z,101409.78
2018-05-25T21:24:07.214Z,101411.48
2018-05-25T21:26:35.990Z,101415.14
2018-05-25T21:29:04.747Z,101406.89
2018-05-25T21:31:33.230Z,101409.24
2018-05-25T21:34:01.608Z,101410.30
2018-05-25T21:36:30.005Z,101412.11
2018-05-25T21:38:58.372Z,101417.46
2018-05-25T21:41:26.734Z,101414.78
2018-05-25T21:43:55.107Z,101421.47
2018-05-25T21:46:23.495Z,101421.19
2018-05-25T21:48:51.878Z,101421.38
2018-05-25T21:51:20.250Z,101418.45
2018-05-25T21:53:48.650Z,101419.47
2018-05-25T21:56:17.022Z,101415.92
2018-05-25T21:58:45.398Z,101411.60
2018-05-25T22:01:13.862Z,101413.73
2018-05-25T22:03:42.490Z,101411.66
2018-05-25T22:06:11.486Z,101413.48
2018-05-25T22:08:40.914Z,101416.59
2018-05-25T22:11:10.462Z,101417.95
2018-05-25T22:13:39.016Z,101428.12
2018-05-25T22:16:07.410Z,101425.89
2018-05-25T22:18:35.992Z,101433.02
2018-05-25T22:21:04.986Z,101423.13
2018-05-25T22:23:33.715Z,101424.05
2018-05-25T22:26:02.184Z,101424.05
2018-05-25T22:28:30.548Z,101431.02
2018-05-25T22:30:58.958Z,101426.41
2018-05-25T22:33:27.675Z,101425.66
2018-05-25T22:35:56.510Z,101421.36
2018-05-25T22:38:26.071Z,101417.52
2018-05-25T22:40:55.375Z,101415.80
2018-05-25T22:43:41.404Z,101417.75
2018-05-25T22:46:29.253Z,101411.80
2018-05-25T22:49:16.949Z,101416.02
2018-05-25T22:52:04.153Z,101412.67
2018-05-25T22:54:38.242Z,101422.53
2018-05-25T22:57:06.662Z,101416.98
2018-05-25T22:59:35.275Z,101421.71
2018-05-25T23:02:03.792Z,101419.85
2018-05-25T23:04:32.971Z,101421.30
2018-05-25T23:07:16.997Z,101422.84
2018-05-25T23:09:46.500Z,101424.52
2018-05-25T23:12:16.370Z,101420.58
2018-05-25T23:14:45.240Z,101421.52
2018-05-25T23:17:14.120Z,101422.14
2018-05-25T23:19:42.897Z,101421.89
2018-05-25T23:22:12.240Z,101426.64
2018-05-25T23:24:41.803Z,101426.11
2018-05-25T23:27:11.703Z,101421.05
2018-05-25T23:29:40.288Z,101420.98
2018-05-25T23:32:09.678Z,101416.80
2018-05-25T23:34:39.076Z,101419.82
2018-05-25T23:37:08.766Z,101422.73
2018-05-25T23:39:38.022Z,101418.99
2018-05-25T23:42:07.644Z,101413.41
2018-05-25T23:44:37.569Z,101408.23
2018-05-25T23:47:07.185Z,101412.09
2018-05-25T23:49:37.314Z,101413.48
2018-05-25T23:52:06.502Z,101416.94
2018-05-25T23:54:35.401Z,101416.52
2018-05-25T23:57:04.506Z,101419.44
2018-05-25T23:59:33.020Z,101421.55
